N115SB KJZP-KLZU
Flight info
| Callsign | N115SB |
|---|---|
| Flight time | 0h 19m |
| Altitude | VFR/075 |
| Route | |
| Aircraft | P28B/L-DOV/C |
Departure
| Time | 2026-05-09 00:47 |
|---|---|
| Airport | Pickens County Airport (KJZP) |
Arrival
| Time | 2026-05-09 01:06 |
|---|---|
| Airport | Gwinnett County Briscoe Field (KLZU) |
| Time | Latitude | Longitude | Altitude | Speed | Heading |
|---|---|---|---|---|---|
| 2026-05-09 00:47 | 34.41652 | -84.47289 | 7519 ft | 135 kts | 136° |
| 2026-05-09 00:47 | 34.40971 | -84.46495 | 7514 ft | 136 kts | 136° |
| 2026-05-09 00:47 | 34.40297 | -84.45701 | 7523 ft | 135 kts | 136° |
| 2026-05-09 00:47 | 34.39632 | -84.44895 | 7513 ft | 136 kts | 134° |
| 2026-05-09 00:48 | 34.38982 | -84.44069 | 7527 ft | 135 kts | 133° |
| 2026-05-09 00:48 | 34.38332 | -84.43241 | 7523 ft | 136 kts | 134° |
| 2026-05-09 00:48 | 34.37674 | -84.42425 | 7527 ft | 135 kts | 134° |
| 2026-05-09 00:48 | 34.37011 | -84.41616 | 7526 ft | 135 kts | 136° |
| 2026-05-09 00:49 | 34.36328 | -84.40830 | 7527 ft | 135 kts | 137° |
| 2026-05-09 00:49 | 34.35636 | -84.40059 | 7519 ft | 136 kts | 137° |
| 2026-05-09 00:49 | 34.34953 | -84.39290 | 7520 ft | 135 kts | 137° |
| 2026-05-09 00:49 | 34.34264 | -84.38519 | 7525 ft | 135 kts | 138° |
| 2026-05-09 00:50 | 34.33570 | -84.37750 | 7522 ft | 135 kts | 137° |
| 2026-05-09 00:50 | 34.32879 | -84.36975 | 7521 ft | 135 kts | 136° |
| 2026-05-09 00:50 | 34.32210 | -84.36177 | 7536 ft | 135 kts | 135° |
| 2026-05-09 00:50 | 34.31545 | -84.35384 | 7542 ft | 135 kts | 136° |
| 2026-05-09 00:51 | 34.30863 | -84.34587 | 7512 ft | 136 kts | 136° |
| 2026-05-09 00:51 | 34.30193 | -84.33788 | 7527 ft | 135 kts | 135° |
| 2026-05-09 00:51 | 34.29524 | -84.32987 | 7525 ft | 136 kts | 135° |
| 2026-05-09 00:51 | 34.28857 | -84.32183 | 7525 ft | 136 kts | 135° |
| 2026-05-09 00:52 | 34.28182 | -84.31389 | 7526 ft | 135 kts | 136° |
| 2026-05-09 00:52 | 34.27505 | -84.30582 | 7493 ft | 136 kts | 135° |
| 2026-05-09 00:52 | 34.26852 | -84.29776 | 7421 ft | 135 kts | 134° |
| 2026-05-09 00:52 | 34.26196 | -84.28953 | 7312 ft | 136 kts | 135° |
| 2026-05-09 00:53 | 34.25524 | -84.28146 | 7177 ft | 136 kts | 136° |
| 2026-05-09 00:53 | 34.24843 | -84.27366 | 7040 ft | 137 kts | 137° |
| 2026-05-09 00:53 | 34.24151 | -84.26586 | 6931 ft | 135 kts | 137° |
| 2026-05-09 00:53 | 34.23459 | -84.25818 | 6740 ft | 138 kts | 138° |
| 2026-05-09 00:54 | 34.22758 | -84.25042 | 6625 ft | 134 kts | 137° |
| 2026-05-09 00:54 | 34.22080 | -84.24266 | 6492 ft | 135 kts | 136° |
| 2026-05-09 00:54 | 34.21411 | -84.23467 | 6355 ft | 135 kts | 135° |
| 2026-05-09 00:54 | 34.20752 | -84.22663 | 6231 ft | 134 kts | 136° |
| 2026-05-09 00:55 | 34.20085 | -84.21874 | 6104 ft | 134 kts | 136° |
| 2026-05-09 00:55 | 34.19425 | -84.21080 | 6003 ft | 134 kts | 135° |
| 2026-05-09 00:55 | 34.18768 | -84.20285 | 5894 ft | 134 kts | 135° |
| 2026-05-09 00:55 | 34.18104 | -84.19504 | 5778 ft | 133 kts | 137° |
| 2026-05-09 00:56 | 34.17431 | -84.18732 | 5651 ft | 134 kts | 137° |
| 2026-05-09 00:56 | 34.16752 | -84.17973 | 5550 ft | 133 kts | 137° |
| 2026-05-09 00:56 | 34.16073 | -84.17210 | 5480 ft | 135 kts | 137° |
| 2026-05-09 00:56 | 34.15393 | -84.16437 | 5460 ft | 134 kts | 137° |
| 2026-05-09 00:57 | 34.14714 | -84.15666 | 5430 ft | 134 kts | 137° |
| 2026-05-09 00:57 | 34.14039 | -84.14894 | 5403 ft | 134 kts | 137° |
| 2026-05-09 00:57 | 34.13365 | -84.14120 | 5386 ft | 133 kts | 137° |
| 2026-05-09 00:57 | 34.12701 | -84.13367 | 5416 ft | 130 kts | 137° |
| 2026-05-09 00:58 | 34.12040 | -84.12619 | 5405 ft | 131 kts | 137° |
| 2026-05-09 00:58 | 34.11370 | -84.11868 | 5391 ft | 131 kts | 138° |
| 2026-05-09 00:58 | 34.10700 | -84.11123 | 5383 ft | 131 kts | 138° |
| 2026-05-09 00:58 | 34.10032 | -84.10380 | 5383 ft | 131 kts | 137° |
| 2026-05-09 00:59 | 34.09359 | -84.09642 | 5381 ft | 131 kts | 139° |
| 2026-05-09 00:59 | 34.08672 | -84.08924 | 5384 ft | 130 kts | 138° |
| 2026-05-09 00:59 | 34.08018 | -84.08180 | 5395 ft | 130 kts | 136° |
| 2026-05-09 00:59 | 34.07372 | -84.07420 | 5401 ft | 130 kts | 135° |
| 2026-05-09 01:00 | 34.06723 | -84.06665 | 5401 ft | 130 kts | 136° |
| 2026-05-09 01:00 | 34.06074 | -84.05930 | 5399 ft | 127 kts | 137° |
| 2026-05-09 01:00 | 34.05436 | -84.05198 | 5157 ft | 131 kts | 136° |
| 2026-05-09 01:00 | 34.04797 | -84.04468 | 5018 ft | 125 kts | 137° |
| 2026-05-09 01:01 | 34.04141 | -84.03740 | 4735 ft | 129 kts | 138° |
| 2026-05-09 01:01 | 34.03482 | -84.03031 | 4508 ft | 126 kts | 138° |
| 2026-05-09 01:01 | 34.02848 | -84.02301 | 4203 ft | 127 kts | 135° |
| 2026-05-09 01:01 | 34.02247 | -84.01516 | 3926 ft | 126 kts | 131° |
| 2026-05-09 01:02 | 34.01671 | -84.00719 | 3686 ft | 126 kts | 128° |
| 2026-05-09 01:02 | 34.01240 | -83.99903 | 3538 ft | 104 kts | 121° |
| 2026-05-09 01:02 | 34.00949 | -83.99158 | 3326 ft | 96 kts | 102° |
| 2026-05-09 01:02 | 34.00903 | -83.98393 | 3135 ft | 85 kts | 89° |
| 2026-05-09 01:03 | 34.00920 | -83.97677 | 2874 ft | 87 kts | 86° |
| 2026-05-09 01:03 | 34.00974 | -83.96966 | 2648 ft | 85 kts | 82° |
| 2026-05-09 01:03 | 34.01082 | -83.96262 | 2439 ft | 84 kts | 77° |
| 2026-05-09 01:03 | 34.01212 | -83.95580 | 2306 ft | 83 kts | 75° |
| 2026-05-09 01:04 | 34.01244 | -83.94908 | 2181 ft | 83 kts | 110° |
| 2026-05-09 01:04 | 34.00865 | -83.94489 | 2101 ft | 71 kts | 153° |
| 2026-05-09 01:04 | 34.00411 | -83.94251 | 1963 ft | 71 kts | 159° |
| 2026-05-09 01:04 | 33.99952 | -83.94030 | 1864 ft | 70 kts | 159° |
| 2026-05-09 01:05 | 33.99493 | -83.93826 | 1732 ft | 72 kts | 164° |
| 2026-05-09 01:05 | 33.99006 | -83.93848 | 1535 ft | 75 kts | 205° |
| 2026-05-09 01:05 | 33.98413 | -83.94736 | 1186 ft | 69 kts | 245° |
| 2026-05-09 01:06 | 33.98207 | -83.95265 | 1017 ft | 68 kts | 245° |
| 2026-05-09 01:06 | 33.98024 | -83.95716 | 996 ft | 50 kts | 244° |
| 2026-05-09 01:06 | 33.97899 | -83.96021 | 1012 ft | 24 kts | 244° |
| 2026-05-09 01:06 | 33.97902 | -83.96127 | 1015 ft | 8 kts | 336° |
| 2026-05-09 01:07 | 33.97939 | -83.96149 | 1015 ft | 0 kts | 334° |
| 2026-05-09 01:08 | 33.97970 | -83.96167 | 1015 ft | 8 kts | 334° |
| 2026-05-09 01:08 | 33.98016 | -83.96194 | 1017 ft | 6 kts | 333° |
| 2026-05-09 01:08 | 33.98038 | -83.96210 | 1019 ft | 1 kts | 325° |
| 2026-05-09 01:08 | 33.98043 | -83.96214 | 1019 ft | 6 kts | 324° |
| 2026-05-09 01:09 | 33.98105 | -83.96255 | 1023 ft | 10 kts | 337° |
| 2026-05-09 01:09 | 33.98117 | -83.96283 | 1027 ft | 0 kts | 252° |